^^
Station Historical Data
Daily Summary for May 22, 2017 Units:  English    Metric   Both
« Previous Day
Next Day »
Daily Weekly Monthly Yearly Custom
  High: Low: Average:
Temperature: TemperatureF °F 50.9 °F 54.5 °F
Dew Point: DewpointF °F 40.8 °F 52 °F
Humidity: Humidity% 57% 91%
Wind Speed: WindSpeedMPHmph 0.0mph 0.3mph
Wind Gust: WindSpeedGustMPHmph - -
Wind- - WSW
Pressure: PressureIn in 29.97 in -
Precipitation: 0.53 in    
Historical Graphs
 
 
Tabular Data for May 22, 2017
Time Temperature Dew Point Pressure Wind Wind Speed Wind Gust Humidity Rainfall Rate (Hourly) Conditions
TemperatureF °F DewpointF °F PressureIn in Calm     Humidity% HourlyPrecipIn in Conditions
00:00 55.8 °F 40.8 °F 30.25 in SSE 1.0 mph 4.0 mph 57% 0.00 in BKN
00:15 55.8 °F 41.2 °F 30.25 in Calm   4.0 mph 58% 0.00 in BKN
00:30 55.7 °F 41.6 °F 30.24 in SW 1.0 mph 5.0 mph 59% 0.00 in BKN
00:45 55.7 °F 42.0 °F 30.24 in SSW 1.0 mph 4.0 mph 60% 0.00 in BKN
01:00 55.7 °F 42.0 °F 30.23 in SSW 1.0 mph 5.0 mph 60% 0.00 in BKN
02:15 53.5 °F 46.4 °F 30.22 in SSW 1.0 mph 7.0 mph 77% 0.00 in BKN
02:30 53.4 °F 46.7 °F 30.22 in Calm   3.0 mph 78% 0.00 in BKN
02:45 53.4 °F 46.7 °F 30.22 in Calm   2.0 mph 78% 0.00 in BKN
03:00 53.3 °F 47.6 °F 30.22 in Calm   3.0 mph 81% 0.10 in RA
03:15 51.7 °F 47.9 °F 30.21 in Calm   2.0 mph 87% 0.07 in RA
03:45 51.2 °F 49.0 °F 30.20 in Calm   2.0 mph 92% 0.00 in OVC
04:00 51.3 °F 49.1 °F 30.20 in Calm   1.0 mph 92% 0.00 in OVC
04:15 51.3 °F 49.1 °F 30.20 in Calm   1.0 mph 92% 0.01 in -RA
04:30 51.4 °F 49.4 °F 30.19 in Calm   1.0 mph 93% 0.00 in -RA
04:45 51.4 °F 49.4 °F 30.19 in Calm   2.0 mph 93% 0.00 in -RA
05:00 51.4 °F 49.4 °F 30.18 in Calm   3.0 mph 93% 0.00 in -RA
05:15 51.4 °F 49.4 °F 30.19 in Calm   1.0 mph 93% 0.00 in BKN
05:30 51.5 °F 49.5 °F 30.18 in Calm   2.0 mph 93% 0.00 in BKN
05:45 51.6 °F 49.6 °F 30.18 in Calm   1.0 mph 93% 0.00 in BKN
06:15 51.4 °F 49.4 °F 30.18 in Calm   3.0 mph 93% 0.00 in BKN
06:30 51.2 °F 49.2 °F 30.18 in Calm   3.0 mph 93% 0.00 in BKN
06:45 51.1 °F 49.1 °F 30.18 in Calm   3.0 mph 93% 0.00 in BKN
07:00 50.9 °F 48.7 °F 30.17 in Calm   3.0 mph 92% 0.00 in BKN
07:15 50.9 °F 48.7 °F 30.17 in NNW 1.0 mph 3.0 mph 92% 0.00 in BKN
07:30 51.0 °F 48.5 °F 30.18 in Calm   3.0 mph 91% 0.00 in BKN
07:45 51.3 °F 48.8 °F 30.18 in Calm   4.0 mph 91% 0.00 in BKN
08:00 51.6 °F 49.3 °F 30.18 in Calm   3.0 mph 92% 0.00 in BKN
08:15 52.0 °F 49.5 °F 30.18 in Calm   4.0 mph 91% 0.00 in BKN
08:30 52.5 °F 49.9 °F 30.18 in Calm   3.0 mph 91% 0.00 in BKN
08:45 52.9 °F 50.3 °F 30.18 in Calm   4.0 mph 91% 0.00 in BKN
09:00 53.4 °F 50.6 °F 30.17 in Calm   2.0 mph 90% 0.00 in BKN
09:15 53.7 °F 50.5 °F 30.17 in SSW 1.0 mph 4.0 mph 89% 0.00 in BKN
09:30 54.2 °F 51.0 °F 30.17 in WSW 1.0 mph 4.0 mph 89% 0.00 in BKN
09:45 54.5 °F 51.0 °F 30.16 in NW 1.0 mph 5.0 mph 88% 0.00 in BKN
10:00 54.6 °F 51.1 °F 30.15 in Calm   5.0 mph 88% 0.00 in BKN
10:15 54.5 °F 51.6 °F 30.14 in West 1.0 mph 6.0 mph 90% 0.00 in BKN
10:30 54.3 °F 51.7 °F 30.14 in WSW 1.0 mph 5.0 mph 91% 0.02 in RA
10:45 54.2 °F 51.9 °F 30.14 in Calm   5.0 mph 92% 0.00 in BKN
11:00 53.8 °F 51.9 °F 30.13 in West 1.0 mph 3.0 mph 93% 0.00 in BKN
11:15 53.9 °F 51.9 °F 30.13 in West 1.0 mph 3.0 mph 93% 0.03 in -RA
11:30 53.7 °F 52.0 °F 30.12 in Calm   3.0 mph 94% 0.01 in -RA
11:45 54.2 °F 52.5 °F 30.11 in Calm   3.0 mph 94% 0.01 in -RA
12:00 54.0 °F 52.3 °F 30.11 in Calm   4.0 mph 94% 0.01 in -RA
12:15 54.1 °F 52.4 °F 30.10 in Calm   4.0 mph 94% 0.00 in -RA
12:30 54.3 °F 52.9 °F 30.09 in SW 1.0 mph 6.0 mph 95% 0.01 in -RA
12:45 54.4 °F 53.0 °F 30.10 in NNW 1.0 mph 3.0 mph 95% 0.00 in -RA
13:00 54.6 °F 53.2 °F 30.09 in Calm   3.0 mph 95% 0.00 in -RA
13:15 54.8 °F 53.4 °F 30.09 in Calm   2.0 mph 95% 0.02 in -RA
13:30 55.0 °F 53.6 °F 30.08 in Calm   2.0 mph 95% 0.01 in -RA
13:45 55.2 °F 53.8 °F 30.07 in Calm   4.0 mph 95% 0.00 in -RA
14:00 55.5 °F 54.1 °F 30.06 in ENE 1.0 mph 4.0 mph 95% 0.01 in -RA
14:15 55.8 °F 54.4 °F 30.05 in West 1.0 mph 4.0 mph 95% 0.01 in -RA
14:30 55.9 °F 54.5 °F 30.05 in NNE 2.0 mph 7.0 mph 95% 0.01 in -RA
14:45 56.0 °F 54.6 °F 30.05 in Calm   4.0 mph 95% 0.02 in -RA
15:00 56.3 °F 55.2 °F 30.04 in Calm   3.0 mph 96% 0.01 in -RA
15:15 56.5 °F 55.4 °F 30.03 in Calm   4.0 mph 96% 0.00 in -RA
15:30 56.5 °F 55.4 °F 30.03 in Calm   4.0 mph 96% 0.01 in -RA
15:45 56.6 °F 55.5 °F 30.02 in Calm   3.0 mph 96% 0.01 in -RA
16:00 56.6 °F 55.5 °F 30.02 in Calm   3.0 mph 96% 0.00 in -RA
16:15 56.9 °F 55.8 °F 30.01 in NNW 1.0 mph 2.0 mph 96% 0.02 in -RA
16:30 57.4 °F 56.3 °F 30.00 in Calm   2.0 mph 96% 0.03 in -RA
16:45 57.8 °F 56.7 °F 29.99 in Calm   3.0 mph 96% 0.02 in -RA
17:00 57.8 °F 56.7 °F 29.99 in NW 1.0 mph 5.0 mph 96% 0.03 in -RA
17:15 57.9 °F 56.8 °F 29.99 in NW 1.0 mph 4.0 mph 96% 0.00 in -RA
17:30 57.9 °F 56.8 °F 30.00 in Calm   3.0 mph 96% 0.00 in -RA
17:45 57.9 °F 56.8 °F 29.99 in Calm   4.0 mph 96% 0.02 in -RA
18:00 57.9 °F 56.8 °F 29.98 in Calm   1.0 mph 96% 0.00 in -RA
18:15 58.1 °F 56.9 °F 29.98 in Calm   2.0 mph 96% 0.00 in -RA
18:30 58.3 °F 57.2 °F 29.98 in Calm   2.0 mph 96% 0.00 in -RA
18:45 58.3 °F 57.2 °F 29.99 in Calm   1.0 mph 96% 0.00 in -RA
19:00 58.4 °F 57.3 °F 29.98 in Calm   1.0 mph 96% 0.00 in -RA
19:15 58.4 °F 57.3 °F 29.98 in Calm   1.0 mph 96% 0.00 in CLR
19:30 58.4 °F 57.3 °F 29.98 in Calm   1.0 mph 96% 0.00 in CLR
19:45 58.5 °F 57.7 °F 29.98 in Calm     97% 0.00 in CLR
20:00 58.6 °F 57.8 °F 29.98 in Calm     97% 0.00 in CLR
20:15 58.4 °F 57.3 °F 29.98 in Calm   1.0 mph 96% 0.00 in CLR
20:30 58.2 °F 57.1 °F 29.98 in Calm   1.0 mph 96% 0.00 in CLR
20:45 58.2 °F 57.3 °F 29.98 in Calm   2.0 mph 97% 0.00 in CLR
21:00 58.0 °F 57.2 °F 29.97 in Calm   3.0 mph 97% 0.00 in CLR
21:15 57.9 °F 57.1 °F 29.97 in Calm   2.0 mph 97% 0.00 in CLR
21:30 57.9 °F 57.1 °F 29.98 in Calm   2.0 mph 97% 0.00 in CLR
21:45 57.8 °F 57.0 °F 29.98 in NW 1.0 mph 2.0 mph 97% 0.00 in CLR
22:00 57.8 °F 57.0 °F 29.98 in NNW 1.0 mph 2.0 mph 97% 0.00 in CLR
22:15 57.7 °F 56.9 °F 29.99 in Calm   3.0 mph 97% 0.01 in
22:30 57.7 °F 56.9 °F 29.98 in Calm   2.0 mph 97% 0.00 in
22:45 57.7 °F 56.8 °F 29.97 in NNW 1.0 mph 2.0 mph 97% 0.00 in
23:00 57.7 °F 56.9 °F 29.98 in Calm   1.0 mph 97% 0.00 in
23:15 57.7 °F 56.8 °F 29.97 in Calm   2.0 mph 97% 0.00 in CLR
23:30 57.6 °F 56.8 °F 29.97 in Calm   2.0 mph 97% 0.00 in CLR
23:45 57.6 °F 56.8 °F 29.97 in Calm   1.0 mph 97% 0.00 in CLR
TarryTown NY Weather
Compliments of Weather Underground - 1.5 mb